Time;durP1;ratioP1;P1;durP2;ratioP2;P2;SDS_P1;SDS_P2;PMS_P1;PMS_P2;Temp;Humidity;BMP_temperature;BMP_pressure;BME280_temperature;BME280_humidity;BME280_pressure;Samples;Min_cycle;Max_cycle;Signal;HPM_P1;HPM_P2
2022/05/12 00:00:31;;;;;;;4.13;2.15;;;20.50;57.80;;;;;;4996619;28;20093;-90
2022/05/12 00:02:59;;;;;;;3.95;2.22;;;20.40;58.30;;;;;;4998045;28;20069;-90
2022/05/12 00:05:27;;;;;;;3.60;2.10;;;20.40;58.00;;;;;;4979006;28;20105;-89
2022/05/12 00:07:56;;;;;;;4.05;2.42;;;20.40;58.00;;;;;;4996363;28;20101;-89
2022/05/12 00:10:27;;;;;;;3.65;2.30;;;20.30;58.00;;;;;;4995147;28;20105;-90
2022/05/12 00:12:58;;;;;;;5.43;2.38;;;20.30;58.30;;;;;;5007585;28;20074;-91
2022/05/12 00:15:32;;;;;;;4.50;2.40;;;20.30;58.90;;;;;;5015103;28;20058;-89
2022/05/12 00:18:02;;;;;;;3.90;2.50;;;20.10;59.10;;;;;;5015624;28;20085;-90
2022/05/12 00:20:29;;;;;;;3.92;2.40;;;20.10;59.20;;;;;;5015839;28;20056;-89
2022/05/12 00:23:37;;;;;;;3.72;2.55;;;20.00;59.40;;;;;;5023342;28;20042;-91
2022/05/12 00:26:05;;;;;;;4.80;2.30;;;20.00;59.60;;;;;;5009017;28;20069;-92
2022/05/12 00:28:34;;;;;;;3.45;2.17;;;20.10;59.50;;;;;;4992323;28;20073;-91
2022/05/12 00:31:02;;;;;;;5.30;2.30;;;20.10;59.50;;;;;;5025011;28;20057;-91
2022/05/12 00:33:34;;;;;;;4.80;2.50;;;20.10;59.60;;;;;;5026612;28;20050;-92
2022/05/12 00:36:02;;;;;;;3.83;2.20;;;20.00;59.70;;;;;;5026507;28;20546;-91
2022/05/12 00:38:31;;;;;;;4.40;2.17;;;20.10;60.10;;;;;;5024832;28;20068;-91
2022/05/12 00:41:01;;;;;;;4.25;2.03;;;20.00;61.20;;;;;;5026545;28;20067;-91
2022/05/12 00:43:45;;;;;;;3.67;2.30;;;19.80;61.60;;;;;;5022698;28;20058;-91
2022/05/12 00:46:17;;;;;;;5.20;3.03;;;19.70;61.00;;;;;;5022538;28;20060;-90
2022/05/12 00:48:47;;;;;;;4.50;2.35;;;19.80;61.30;;;;;;5005876;28;20072;-91
2022/05/12 00:51:21;;;;;;;4.68;2.30;;;19.90;61.20;;;;;;5022755;28;20046;-91
2022/05/12 00:54:07;;;;;;;6.25;2.70;;;19.90;60.70;;;;;;5019264;28;20050;-91
2022/05/12 00:56:40;;;;;;;4.18;2.45;;;19.90;60.30;;;;;;5029175;28;20050;-92
2022/05/12 00:59:44;;;;;;;3.70;2.20;;;19.90;61.00;;;;;;5027566;28;20050;-92
2022/05/12 01:02:26;;;;;;;4.82;2.30;;;19.80;61.60;;;;;;5029748;28;20431;-93
2022/05/12 01:05:00;;;;;;;4.50;2.35;;;19.70;61.10;;;;;;5025640;28;20054;-92
2022/05/12 01:07:28;;;;;;;4.70;2.50;;;19.60;61.30;;;;;;5021775;28;20411;-92
2022/05/12 01:10:02;;;;;;;4.32;2.30;;;19.50;61.40;;;;;;5005655;28;20053;-92
2022/05/12 01:12:30;;;;;;;4.73;2.50;;;19.60;61.50;;;;;;5001061;28;20092;-89
2022/05/12 01:15:05;;;;;;;4.32;2.35;;;19.50;61.50;;;;;;5006611;28;20050;-91
2022/05/12 01:17:45;;;;;;;4.32;2.60;;;19.50;61.90;;;;;;5015375;28;20040;-91
2022/05/12 01:24:06;;;;;;;4.18;2.65;;;19.50;62.30;;;;;;5037404;28;20052;-93
2022/05/12 01:26:34;;;;;;;4.60;2.65;;;19.40;62.60;;;;;;5025593;28;20114;-91
2022/05/12 01:29:01;;;;;;;5.10;2.83;;;19.40;62.90;;;;;;5015579;28;20050;-90
2022/05/12 01:31:29;;;;;;;5.57;2.63;;;19.40;62.90;;;;;;5013737;28;20455;-89
2022/05/12 01:33:56;;;;;;;4.68;2.83;;;19.50;63.00;;;;;;5013604;28;20508;-89
2022/05/12 01:36:23;;;;;;;5.15;2.80;;;19.40;63.00;;;;;;5014511;28;20049;-90
2022/05/12 01:38:51;;;;;;;5.80;2.60;;;19.40;63.30;;;;;;4992762;28;20097;-88
2022/05/12 01:41:20;;;;;;;5.05;2.70;;;19.30;63.20;;;;;;4998384;28;20050;-90
2022/05/12 01:43:48;;;;;;;4.10;2.72;;;19.30;63.60;;;;;;5014117;28;20050;-90
2022/05/12 01:46:16;;;;;;;5.43;2.70;;;19.30;63.70;;;;;;4980867;28;20614;-91
2022/05/12 01:48:43;;;;;;;4.45;2.60;;;19.30;63.80;;;;;;5013246;28;20125;-93
2022/05/12 01:51:12;;;;;;;5.95;2.45;;;19.20;63.80;;;;;;5014923;28;20480;-91
2022/05/12 01:53:40;;;;;;;5.35;2.50;;;19.20;64.10;;;;;;5016797;28;20073;-92
2022/05/12 01:56:10;;;;;;;5.13;2.60;;;19.10;64.00;;;;;;5016967;28;20499;-92
2022/05/12 01:58:39;;;;;;;6.43;2.58;;;19.20;64.20;;;;;;5016602;28;20058;-92
2022/05/12 02:01:07;;;;;;;3.90;2.55;;;19.10;64.20;;;;;;5015341;28;20139;-92
2022/05/12 02:03:35;;;;;;;5.10;2.50;;;19.20;64.30;;;;;;5016544;28;20109;-92
2022/05/12 02:06:03;;;;;;;5.65;2.75;;;19.20;64.10;;;;;;5008143;28;20030;-92
2022/05/12 02:08:30;;;;;;;4.15;2.40;;;19.20;64.30;;;;;;5019884;28;20053;-91
2022/05/12 02:10:58;;;;;;;4.38;2.50;;;19.10;64.40;;;;;;5035421;28;20100;-91
2022/05/12 02:13:27;;;;;;;5.32;2.55;;;19.10;64.50;;;;;;5033876;28;20053;-91
2022/05/12 02:15:58;;;;;;;4.95;2.50;;;19.10;64.50;;;;;;5034376;28;20050;-92
2022/05/12 02:18:27;;;;;;;6.47;2.65;;;19.00;64.70;;;;;;4999395;28;20083;-92
2022/05/12 02:20:54;;;;;;;4.53;2.58;;;19.10;64.60;;;;;;5004230;28;20081;-92
2022/05/12 02:23:23;;;;;;;5.65;2.92;;;19.00;64.80;;;;;;4979432;28;20074;-92
2022/05/12 02:25:52;;;;;;;4.35;2.67;;;19.00;65.30;;;;;;4984824;28;20310;-93
2022/05/12 02:28:31;;;;;;;4.80;2.60;;;19.00;65.10;;;;;;5026518;28;20057;-92
2022/05/12 02:31:00;;;;;;;4.28;2.42;;;19.00;65.30;;;;;;5024891;28;20042;-93
2022/05/12 02:33:29;;;;;;;3.75;2.20;;;19.00;65.00;;;;;;5020478;28;20057;-93
2022/05/12 02:36:02;;;;;;;5.03;2.42;;;19.10;64.90;;;;;;5025817;28;20057;-93
2022/05/12 02:38:30;;;;;;;4.45;2.28;;;19.10;64.70;;;;;;5007714;28;20050;-93
2022/05/12 02:40:59;;;;;;;5.38;2.60;;;19.00;64.80;;;;;;5000631;28;20047;-92
2022/05/12 02:43:29;;;;;;;3.85;2.30;;;19.00;64.80;;;;;;4999583;28;20097;-92
2022/05/12 02:46:03;;;;;;;4.63;2.53;;;19.10;64.80;;;;;;5007483;28;20161;-89
2022/05/12 02:48:34;;;;;;;4.43;2.20;;;19.10;64.90;;;;;;5007213;28;20074;-92
2022/05/12 02:51:11;;;;;;;5.35;2.35;;;19.00;64.70;;;;;;5023218;28;20033;-91
2022/05/12 02:54:15;;;;;;;4.20;2.42;;;19.00;64.80;;;;;;5040334;28;20050;-92
2022/05/12 03:03:01;;;;;;;6.83;2.77;;;19.00;64.80;;;;;;5025850;28;20077;-94
2022/05/12 03:05:29;;;;;;;4.53;2.80;;;19.00;64.80;;;;;;5017818;28;20109;-93
2022/05/12 03:07:59;;;;;;;7.28;2.53;;;19.00;65.10;;;;;;5038008;28;20030;-92
2022/05/12 03:10:27;;;;;;;5.57;2.60;;;19.00;65.20;;;;;;5038079;28;20058;-92
2022/05/12 03:12:55;;;;;;;4.10;2.45;;;18.70;67.00;;;;;;5026537;28;20046;-91
2022/05/12 03:15:23;;;;;;;7.30;3.08;;;18.30;69.60;;;;;;5025318;28;20054;-92
2022/05/12 03:17:51;;;;;;;4.50;2.70;;;17.60;72.30;;;;;;4999027;28;20049;-90
2022/05/12 03:20:24;;;;;;;5.40;2.88;;;17.30;73.90;;;;;;5017111;28;20125;-88
2022/05/12 03:22:51;;;;;;;4.60;2.92;;;17.10;74.50;;;;;;5017058;28;20133;-91
2022/05/12 03:25:20;;;;;;;4.20;3.00;;;17.10;74.90;;;;;;5016638;28;20041;-89
2022/05/12 03:27:48;;;;;;;6.40;2.83;;;17.30;72.90;;;;;;5016679;28;20113;-91
2022/05/12 03:30:19;;;;;;;5.30;2.80;;;17.50;72.30;;;;;;5018277;28;20092;-91
2022/05/12 03:32:47;;;;;;;4.15;2.78;;;17.60;72.60;;;;;;5018826;28;20036;-94
2022/05/12 03:35:14;;;;;;;6.95;2.80;;;17.70;71.90;;;;;;5017440;28;20076;-92
2022/05/12 03:37:44;;;;;;;6.15;2.70;;;17.80;70.80;;;;;;5016620;28;20114;-93
2022/05/12 03:40:14;;;;;;;4.05;2.78;;;18.10;69.50;;;;;;4999953;28;20571;-89
2022/05/12 03:42:42;;;;;;;4.88;2.55;;;18.30;69.00;;;;;;5000003;28;20046;-89
2022/05/12 03:45:10;;;;;;;4.80;2.85;;;18.30;69.00;;;;;;4999297;28;20053;-90
2022/05/12 03:47:39;;;;;;;6.15;2.63;;;18.40;68.60;;;;;;5003224;28;20240;-91
2022/05/12 03:50:10;;;;;;;5.40;2.50;;;18.40;68.70;;;;;;4996441;28;20050;-92
2022/05/12 03:52:38;;;;;;;4.75;2.33;;;18.40;68.70;;;;;;4996813;28;20150;-92
2022/05/12 03:55:11;;;;;;;4.45;2.40;;;18.40;70.10;;;;;;4996291;28;20054;-91
2022/05/12 03:57:39;;;;;;;5.05;2.50;;;18.30;71.00;;;;;;5015218;28;20118;-92
2022/05/12 04:00:11;;;;;;;6.15;2.78;;;18.20;70.90;;;;;;5015353;28;20121;-91
2022/05/12 04:02:39;;;;;;;6.93;2.67;;;18.20;70.90;;;;;;4998592;28;20053;-91
2022/05/12 04:05:09;;;;;;;4.20;2.60;;;18.20;70.40;;;;;;5019957;28;20136;-91
2022/05/12 04:07:41;;;;;;;4.53;2.60;;;18.10;70.20;;;;;;5001433;28;20074;-92
2022/05/12 04:10:12;;;;;;;4.18;2.25;;;18.20;69.90;;;;;;5018613;28;20054;-91
2022/05/12 04:12:39;;;;;;;4.47;2.35;;;18.20;70.00;;;;;;5001612;28;20607;-92
2022/05/12 04:15:08;;;;;;;5.47;2.40;;;18.20;70.30;;;;;;5001891;28;20054;-92
2022/05/12 04:17:35;;;;;;;4.28;2.40;;;18.20;70.50;;;;;;5020079;28;20045;-93
2022/05/12 04:20:06;;;;;;;5.25;2.30;;;18.20;70.80;;;;;;5027312;28;20057;-91
2022/05/12 04:22:34;;;;;;;4.28;2.42;;;18.20;71.30;;;;;;5018079;28;20046;-91
2022/05/12 04:25:01;;;;;;;4.35;2.47;;;18.10;72.40;;;;;;4988408;28;20046;-93
2022/05/12 04:27:35;;;;;;;5.15;2.70;;;17.90;73.10;;;;;;5016767;28;20136;-92
2022/05/12 04:30:04;;;;;;;4.40;2.35;;;18.00;72.80;;;;;;5009006;28;20088;-93
2022/05/12 04:32:33;;;;;;;5.72;2.45;;;18.10;73.90;;;;;;5035125;28;20049;-92
2022/05/12 04:35:12;;;;;;;6.10;2.72;;;17.70;76.70;;;;;;5013100;28;20069;-93
2022/05/12 04:37:44;;;;;;;4.97;2.40;;;17.30;77.70;;;;;;5021591;28;20403;-90
2022/05/12 04:40:17;;;;;;;4.18;2.25;;;17.30;80.00;;;;;;4998777;28;20454;-91
2022/05/12 04:42:46;;;;;;;3.97;2.47;;;17.50;78.00;;;;;;5015159;28;20077;-90
2022/05/12 04:45:14;;;;;;;5.00;2.30;;;17.70;78.50;;;;;;5023833;28;20050;-92
2022/05/12 04:47:43;;;;;;;3.95;2.40;;;17.50;78.90;;;;;;5035106;28;20033;-91
2022/05/12 04:50:15;;;;;;;4.93;2.97;;;17.40;80.60;;;;;;4999240;28;20042;-83
2022/05/12 04:52:42;;;;;;;4.35;2.40;;;17.50;84.00;;;;;;4996538;28;20042;-85
2022/05/12 04:55:10;;;;;;;3.90;2.50;;;17.40;88.40;;;;;;5014181;28;20081;-84
2022/05/12 04:57:39;;;;;;;4.95;2.30;;;17.60;85.70;;;;;;5013126;28;20056;-80
2022/05/12 05:00:16;;;;;;;5.78;2.72;;;17.70;85.30;;;;;;5013792;28;20050;-80
2022/05/12 05:02:43;;;;;;;4.65;2.60;;;17.80;82.90;;;;;;4994374;28;20134;-81
2022/05/12 05:05:12;;;;;;;3.60;2.08;;;18.00;82.60;;;;;;4995399;28;20085;-91
2022/05/12 05:07:40;;;;;;;6.13;2.60;;;18.00;83.00;;;;;;4993592;28;20121;-91
2022/05/12 05:10:12;;;;;;;4.80;2.67;;;18.10;83.20;;;;;;5014944;28;20058;-92
2022/05/12 05:12:39;;;;;;;4.95;2.55;;;17.90;82.40;;;;;;5002380;28;20058;-91
2022/05/12 05:15:11;;;;;;;4.47;2.30;;;18.00;85.60;;;;;;4998310;28;20137;-94
2022/05/12 05:17:39;;;;;;;3.97;2.53;;;17.90;84.80;;;;;;5000087;28;20050;-90
2022/05/12 05:20:10;;;;;;;3.85;2.33;;;18.00;83.50;;;;;;5010593;28;20074;-87
2022/05/12 05:22:39;;;;;;;3.90;2.10;;;18.10;84.70;;;;;;5005929;28;20050;-89
2022/05/12 05:25:08;;;;;;;4.63;2.20;;;18.10;83.00;;;;;;5014494;28;20729;-89
2022/05/12 05:27:37;;;;;;;5.40;2.58;;;18.20;82.00;;;;;;4985901;28;20467;-91
2022/05/12 05:30:08;;;;;;;4.75;2.55;;;18.20;81.60;;;;;;4987763;23;20417;-89
2022/05/12 05:32:35;;;;;;;4.25;2.40;;;18.30;82.00;;;;;;4940948;29;20159;-90
2022/05/12 05:35:03;;;;;;;5.10;2.80;;;18.40;82.30;;;;;;4922721;29;20138;-89
2022/05/12 05:37:30;;;;;;;5.25;2.33;;;18.40;82.20;;;;;;4956891;29;20462;-86
2022/05/12 05:39:58;;;;;;;4.80;2.40;;;18.40;82.70;;;;;;4958540;28;20042;-91
2022/05/12 05:42:25;;;;;;;4.93;2.53;;;18.40;83.00;;;;;;4988056;28;20074;-90
2022/05/12 05:44:52;;;;;;;5.18;2.35;;;18.50;82.20;;;;;;4991101;28;20050;-89
2022/05/12 05:47:21;;;;;;;4.15;2.10;;;18.50;82.60;;;;;;4985522;28;20057;-90
2022/05/12 05:49:48;;;;;;;4.57;2.30;;;18.60;83.90;;;;;;4964045;28;20155;-89
2022/05/12 05:55:00;;;;;;;5.07;2.30;;;18.60;84.40;;;;;;4961571;28;20193;-92
2022/05/12 05:57:30;;;;;;;4.07;2.30;;;18.60;85.10;;;;;;4957781;28;20042;-83
2022/05/12 06:00:04;;;;;;;4.32;2.20;;;18.70;85.50;;;;;;4974188;28;20504;-84
2022/05/12 06:02:33;;;;;;;3.88;2.30;;;18.70;85.10;;;;;;4974109;28;20050;-85
2022/05/12 06:05:01;;;;;;;5.15;2.40;;;18.80;85.50;;;;;;4972570;28;20051;-82
2022/05/12 06:07:28;;;;;;;4.68;2.35;;;18.80;86.00;;;;;;4955672;28;20043;-81
2022/05/12 06:09:56;;;;;;;5.40;2.42;;;18.80;88.20;;;;;;4973375;28;20150;-80
2022/05/12 06:12:23;;;;;;;3.67;2.22;;;18.70;88.30;;;;;;4972822;28;20097;-80
2022/05/12 06:14:50;;;;;;;5.63;2.30;;;18.70;89.60;;;;;;4965376;28;20525;-82
2022/05/12 06:17:18;;;;;;;4.70;2.33;;;18.70;90.60;;;;;;4973162;28;20101;-81
2022/05/12 06:19:50;;;;;;;4.10;2.13;;;18.70;90.40;;;;;;4978006;28;20125;-81
2022/05/12 06:22:19;;;;;;;4.43;2.08;;;18.80;90.70;;;;;;4960931;28;20038;-82
2022/05/12 06:24:47;;;;;;;4.40;2.20;;;18.80;90.10;;;;;;4974916;28;20407;-81
2022/05/12 06:27:15;;;;;;;4.38;2.40;;;18.90;90.80;;;;;;4976297;28;20133;-81
2022/05/12 06:29:44;;;;;;;4.40;2.00;;;18.90;90.50;;;;;;4965276;28;20086;-80
2022/05/12 06:32:11;;;;;;;4.38;2.30;;;19.00;90.80;;;;;;4951552;29;20054;-81
2022/05/12 06:34:41;;;;;;;4.32;2.42;;;19.00;90.20;;;;;;4958251;29;20142;-80
2022/05/12 06:37:11;;;;;;;5.63;2.60;;;19.10;90.70;;;;;;4948167;29;20054;-82
2022/05/12 06:39:38;;;;;;;4.53;2.45;;;19.10;90.40;;;;;;4950440;29;20097;-82
2022/05/12 06:42:08;;;;;;;4.70;2.20;;;19.10;89.50;;;;;;4938979;29;20051;-81
2022/05/12 06:44:35;;;;;;;6.20;2.40;;;19.20;90.00;;;;;;4886428;28;20044;-82
2022/05/12 06:47:07;;;;;;;5.03;2.40;;;19.20;89.50;;;;;;4925097;29;20102;-81
2022/05/12 06:49:35;;;;;;;6.43;2.47;;;19.30;90.60;;;;;;4919086;29;20119;-81
2022/05/12 06:52:05;;;;;;;5.32;2.58;;;19.40;91.10;;;;;;4920661;29;20051;-82
2022/05/12 06:54:34;;;;;;;3.75;2.17;;;19.30;90.20;;;;;;4905643;29;20139;-84
2022/05/12 06:57:01;;;;;;;5.75;2.20;;;19.30;90.80;;;;;;4919926;29;20493;-83
2022/05/12 06:59:29;;;;;;;5.82;2.40;;;19.30;90.80;;;;;;4919726;29;20082;-82
2022/05/12 07:01:56;;;;;;;4.10;2.08;;;19.30;91.00;;;;;;4909895;29;20072;-83
2022/05/12 07:04:24;;;;;;;4.80;2.17;;;19.40;91.70;;;;;;4915516;29;20138;-82
2022/05/12 07:06:52;;;;;;;3.90;1.92;;;19.60;92.00;;;;;;4913470;29;20055;-79
2022/05/12 07:09:20;;;;;;;4.03;1.90;;;19.50;91.60;;;;;;4937353;29;20474;-78
2022/05/12 07:11:48;;;;;;;5.15;2.10;;;19.60;91.30;;;;;;4938661;29;20110;-80
2022/05/12 07:14:17;;;;;;;4.72;2.05;;;19.60;92.00;;;;;;4931595;29;20052;-79
2022/05/12 07:16:45;;;;;;;3.78;1.98;;;19.60;91.50;;;;;;4937009;29;20060;-80
2022/05/12 07:19:15;;;;;;;3.78;1.98;;;19.60;91.00;;;;;;4937360;29;20134;-81
2022/05/12 07:27:13;;;;;;;4.30;1.98;;;19.60;91.60;;;;;;4915506;29;20050;-81
2022/05/12 07:29:40;;;;;;;4.05;2.08;;;19.50;91.20;;;;;;4938194;28;20150;-80
2022/05/12 07:32:08;;;;;;;7.15;2.10;;;19.50;91.80;;;;;;4957175;29;20078;-80
2022/05/12 07:34:36;;;;;;;4.95;2.20;;;19.60;91.60;;;;;;4957151;29;20047;-79
2022/05/12 07:37:04;;;;;;;4.57;2.30;;;19.60;91.50;;;;;;4955900;28;20086;-78
2022/05/12 07:39:33;;;;;;;6.00;2.85;;;19.60;92.00;;;;;;4957082;29;20147;-79
2022/05/12 07:42:02;;;;;;;4.93;2.10;;;19.70;91.90;;;;;;4951244;29;21417;-82
2022/05/12 07:44:34;;;;;;;4.55;2.50;;;19.60;91.90;;;;;;4925352;29;20146;-82
2022/05/12 07:47:03;;;;;;;3.25;1.80;;;19.70;92.00;;;;;;4933070;29;20055;-81
2022/05/12 07:49:35;;;;;;;6.25;2.20;;;19.80;91.90;;;;;;4931595;29;20135;-83
2022/05/12 07:52:03;;;;;;;4.47;2.30;;;19.80;91.80;;;;;;4930381;29;20131;-81
2022/05/12 07:54:30;;;;;;;4.13;2.20;;;19.90;92.20;;;;;;4926286;29;20139;-83
2022/05/12 07:56:57;;;;;;;3.80;2.10;;;19.90;91.80;;;;;;4925057;29;20143;-83
2022/05/12 07:59:27;;;;;;;3.40;1.92;;;20.10;91.40;;;;;;4933190;29;20054;-85
2022/05/12 08:01:56;;;;;;;5.35;2.40;;;20.20;91.30;;;;;;4935669;29;20040;-85
2022/05/12 08:04:23;;;;;;;6.88;2.50;;;20.30;91.20;;;;;;4936405;29;20216;-83
2022/05/12 08:06:50;;;;;;;3.63;1.80;;;20.20;91.00;;;;;;4917035;29;20047;-83
2022/05/12 08:09:17;;;;;;;3.97;2.10;;;20.30;91.50;;;;;;4931192;29;20079;-82
2022/05/12 08:11:45;;;;;;;3.85;2.38;;;20.40;91.00;;;;;;4927454;29;20055;-83
2022/05/12 08:14:12;;;;;;;4.18;2.47;;;20.40;90.20;;;;;;4955673;29;20055;-87
2022/05/12 08:16:40;;;;;;;6.22;2.30;;;20.30;90.60;;;;;;4927044;29;20058;-85
2022/05/12 08:19:09;;;;;;;3.92;2.10;;;20.30;91.30;;;;;;4944977;29;20082;-79
2022/05/12 08:21:36;;;;;;;4.32;2.35;;;20.50;91.10;;;;;;4937512;29;20130;-80
2022/05/12 08:24:03;;;;;;;4.00;2.30;;;20.60;90.80;;;;;;4925059;29;20063;-83
2022/05/12 08:26:30;;;;;;;5.07;2.60;;;20.70;89.90;;;;;;4929559;29;20131;-80
2022/05/12 08:28:58;;;;;;;5.75;2.88;;;20.70;89.90;;;;;;4929843;29;20056;-79
2022/05/12 08:31:29;;;;;;;4.93;2.40;;;20.70;90.10;;;;;;4928404;29;20048;-81
2022/05/12 08:33:57;;;;;;;5.90;2.92;;;20.70;89.90;;;;;;4915074;29;20047;-78
2022/05/12 08:36:27;;;;;;;6.10;2.78;;;20.80;89.90;;;;;;4936149;29;20074;-78
2022/05/12 08:38:55;;;;;;;4.97;2.40;;;20.80;90.10;;;;;;4928835;29;20139;-78
2022/05/12 08:41:40;;;;;;;6.53;2.70;;;20.90;89.10;;;;;;4932088;29;20062;-80
2022/05/12 08:44:13;;;;;;;6.05;2.83;;;20.80;89.80;;;;;;4937355;29;20126;-80
2022/05/12 08:46:44;;;;;;;3.83;2.50;;;20.80;89.60;;;;;;4915217;29;20048;-79
2022/05/12 08:49:22;;;;;;;4.53;2.80;;;20.90;90.10;;;;;;4929376;29;20049;-81
2022/05/12 08:51:56;;;;;;;4.20;2.72;;;20.90;88.20;;;;;;4927401;29;20486;-79
2022/05/12 08:54:27;;;;;;;5.15;2.30;;;20.80;90.50;;;;;;4927373;29;20048;-84
2022/05/12 08:57:02;;;;;;;3.72;2.00;;;20.80;91.30;;;;;;4931231;29;20127;-82
2022/05/12 08:59:31;;;;;;;3.60;1.60;;;20.80;91.10;;;;;;4929718;29;20138;-85
2022/05/12 09:02:11;;;;;;;3.72;2.00;;;20.90;91.40;;;;;;4931749;29;20047;-85
2022/05/12 09:05:03;;;;;;;4.85;2.08;;;21.00;90.80;;;;;;4929638;29;20138;-86
2022/05/12 09:07:39;;;;;;;4.90;1.92;;;21.10;90.90;;;;;;4923837;29;20139;-86
2022/05/12 09:10:23;;;;;;;3.72;1.85;;;21.20;91.00;;;;;;4929687;29;20058;-85
2022/05/12 09:12:54;;;;;;;3.65;1.83;;;21.20;90.80;;;;;;4931444;29;20242;-83
2022/05/12 09:15:27;;;;;;;4.38;1.80;;;21.30;91.30;;;;;;4932933;29;20527;-85
2022/05/12 09:17:58;;;;;;;3.45;1.60;;;21.30;91.20;;;;;;4933997;29;20047;-86
2022/05/12 09:20:28;;;;;;;2.80;1.50;;;21.40;91.30;;;;;;4918153;29;20186;-83
2022/05/12 09:22:57;;;;;;;2.78;1.42;;;21.40;91.70;;;;;;4931584;29;20135;-84
2022/05/12 09:25:36;;;;;;;3.88;1.77;;;21.40;91.30;;;;;;4935060;29;20115;-83
2022/05/12 09:28:27;;;;;;;4.63;1.70;;;21.50;91.20;;;;;;4927279;29;20172;-86
2022/05/12 09:30:56;;;;;;;4.35;2.00;;;21.60;91.00;;;;;;4935687;29;20055;-83
2022/05/12 09:33:31;;;;;;;4.68;2.03;;;21.40;90.20;;;;;;4936279;29;20494;-82
2022/05/12 09:36:01;;;;;;;4.32;2.25;;;21.30;90.90;;;;;;4933831;29;20099;-82
2022/05/12 09:38:30;;;;;;;4.18;1.85;;;21.60;91.00;;;;;;4944870;29;20056;-82
2022/05/12 09:40:58;;;;;;;3.70;1.75;;;21.80;90.70;;;;;;4930125;29;20106;-81
2022/05/12 09:43:31;;;;;;;4.18;2.15;;;21.90;90.10;;;;;;4923566;29;20051;-78
2022/05/12 09:46:08;;;;;;;4.00;2.17;;;21.80;89.70;;;;;;4921923;29;20082;-80
2022/05/12 09:48:40;;;;;;;4.10;2.40;;;21.80;90.20;;;;;;4939063;29;20127;-84
2022/05/12 09:51:29;;;;;;;4.82;2.15;;;21.60;89.80;;;;;;4917315;29;20184;-83
2022/05/12 09:54:23;;;;;;;4.30;2.40;;;21.80;89.30;;;;;;4902134;29;20508;-79
2022/05/12 09:57:01;;;;;;;4.93;2.20;;;21.90;88.80;;;;;;4934014;29;20056;-84
2022/05/12 09:59:34;;;;;;;5.63;2.47;;;21.70;88.80;;;;;;4938862;29;20085;-79
2022/05/12 10:02:04;;;;;;;5.30;2.30;;;21.90;89.00;;;;;;4937890;29;20071;-86
2022/05/12 10:10:20;;;;;;;5.10;2.40;;;22.00;89.70;;;;;;4936635;29;20082;-82
2022/05/12 10:12:56;;;;;;;4.67;2.50;;;22.00;88.60;;;;;;4938757;29;20055;-85
2022/05/12 10:15:30;;;;;;;4.40;2.40;;;22.20;87.80;;;;;;4938051;29;20103;-83
2022/05/12 10:18:18;;;;;;;6.80;2.85;;;22.10;89.40;;;;;;4938171;29;20060;-83
2022/05/12 10:20:52;;;;;;;4.90;2.50;;;22.00;87.30;;;;;;4937590;29;20052;-84
2022/05/12 10:23:26;;;;;;;4.43;2.80;;;21.90;87.00;;;;;;4936994;29;20047;-85
2022/05/12 10:26:03;;;;;;;3.70;2.25;;;22.10;88.80;;;;;;4938095;29;20514;-84
2022/05/12 10:28:48;;;;;;;5.60;2.70;;;22.20;88.90;;;;;;4937734;29;20094;-85
2022/05/12 10:31:29;;;;;;;4.70;2.50;;;22.10;87.60;;;;;;4936648;29;20474;-83
2022/05/12 10:34:17;;;;;;;4.65;2.17;;;22.00;88.40;;;;;;4937091;29;20438;-84
2022/05/12 10:36:54;;;;;;;3.35;2.10;;;22.10;88.50;;;;;;4937041;29;20056;-83
2022/05/12 10:39:28;;;;;;;4.00;2.20;;;22.30;88.80;;;;;;4936140;29;20142;-83
2022/05/12 10:42:17;;;;;;;3.95;2.13;;;22.30;87.60;;;;;;4936085;29;20139;-84
2022/05/12 10:45:02;;;;;;;4.40;2.40;;;22.60;88.10;;;;;;4936874;29;20062;-85
2022/05/12 10:48:07;;;;;;;5.40;2.70;;;22.70;86.80;;;;;;4937220;29;20494;-86
2022/05/12 10:50:43;;;;;;;4.80;2.72;;;22.60;85.80;;;;;;4919410;29;20048;-83
2022/05/12 10:53:25;;;;;;;6.18;2.60;;;22.40;86.80;;;;;;4936943;29;20056;-84
2022/05/12 10:56:04;;;;;;;4.93;2.30;;;22.10;86.00;;;;;;4935492;29;20152;-84
2022/05/12 10:58:42;;;;;;;4.53;2.55;;;22.40;87.10;;;;;;4935810;29;20062;-84
2022/05/12 11:01:17;;;;;;;4.90;2.40;;;22.40;87.50;;;;;;4935958;29;20050;-84
2022/05/12 11:03:53;;;;;;;5.57;2.58;;;22.60;86.70;;;;;;4936029;29;20091;-85
2022/05/12 11:06:24;;;;;;;5.65;2.45;;;22.60;86.90;;;;;;4938546;29;20055;-84
2022/05/12 11:08:57;;;;;;;4.72;2.58;;;22.60;86.60;;;;;;4939412;29;20698;-83
2022/05/12 11:11:29;;;;;;;4.18;2.40;;;22.40;86.10;;;;;;4938894;29;20557;-85
2022/05/12 11:14:08;;;;;;;4.53;2.30;;;22.50;87.00;;;;;;4939396;29;20458;-84
2022/05/12 11:16:44;;;;;;;4.63;2.35;;;22.70;86.70;;;;;;4939098;29;20139;-84
2022/05/12 11:19:19;;;;;;;5.53;2.60;;;22.70;85.30;;;;;;4938807;29;20052;-83
2022/05/12 11:22:01;;;;;;;;;;;22.90;86.00;;;;;;4922730;29;20119;-84
2022/05/12 11:24:52;;;;;;;4.15;2.47;;;23.10;86.30;;;;;;4938950;29;20009;-84
2022/05/12 11:27:44;;;;;;;5.50;2.85;;;23.20;83.70;;;;;;4938953;29;20418;-85
2022/05/12 11:30:32;;;;;;;4.90;3.00;;;22.90;83.00;;;;;;4904045;29;20063;-83
2022/05/12 11:33:25;;;;;;;5.82;3.00;;;22.90;83.90;;;;;;4919705;29;20498;-84
2022/05/12 11:35:55;;;;;;;5.20;2.75;;;22.90;84.10;;;;;;4919488;29;20499;-84
2022/05/12 11:38:51;;;;;;;4.72;2.70;;;23.00;83.10;;;;;;4918600;29;20086;-84
2022/05/12 11:41:42;;;;;;;5.03;2.63;;;23.10;82.60;;;;;;4919566;29;20048;-85
2022/05/12 11:44:34;;;;;;;6.15;3.05;;;23.30;82.30;;;;;;4920122;29;20056;-85
2022/05/12 11:47:46;;;;;;;4.95;2.83;;;23.50;82.60;;;;;;4904441;29;20067;-85
2022/05/12 11:50:30;;;;;;;5.05;2.70;;;23.40;81.50;;;;;;4919875;29;20052;-84
2022/05/12 11:53:13;;;;;;;4.05;2.55;;;23.50;81.50;;;;;;4918951;29;20220;-84
2022/05/12 11:56:01;;;;;;;6.10;3.00;;;23.60;79.40;;;;;;4919255;29;20052;-83
2022/05/12 11:58:40;;;;;;;5.85;2.63;;;23.90;81.50;;;;;;4918554;29;20060;-83
2022/05/12 12:01:11;;;;;;;6.20;3.25;;;24.00;78.10;;;;;;4919775;29;20059;-84
2022/05/12 12:03:59;;;;;;;8.70;3.60;;;23.70;78.80;;;;;;4919263;29;20052;-84
2022/05/12 12:06:48;;;;;;;5.82;3.35;;;23.90;75.40;;;;;;4919310;29;20087;-84
2022/05/12 12:09:53;;;;;;;5.88;3.25;;;23.90;75.10;;;;;;4919263;29;20498;-84
2022/05/12 12:13:00;;;;;;;5.10;3.38;;;24.10;74.30;;;;;;4919251;29;20062;-84
2022/05/12 12:16:07;;;;;;;5.72;3.47;;;24.20;73.90;;;;;;4918485;29;20538;-84
2022/05/12 12:19:07;;;;;;;6.05;3.05;;;24.30;74.80;;;;;;4918716;29;20095;-85
2022/05/12 12:21:53;;;;;;;6.88;3.60;;;24.40;74.20;;;;;;4918525;29;20048;-85
2022/05/12 12:25:02;;;;;;;6.82;3.22;;;24.70;73.60;;;;;;4918806;29;20069;-84
2022/05/12 12:27:59;;;;;;;6.22;3.10;;;24.80;73.30;;;;;;4917653;29;20048;-84
2022/05/12 12:30:52;;;;;;;6.60;3.70;;;25.00;72.90;;;;;;4935153;29;20135;-83
2022/05/12 12:33:38;;;;;;;5.55;3.53;;;24.80;73.30;;;;;;4933977;29;20051;-84
2022/05/12 12:36:27;;;;;;;6.47;3.20;;;24.50;72.20;;;;;;4953428;29;20057;-84
2022/05/12 12:39:09;;;;;;;5.47;3.45;;;24.50;72.90;;;;;;4952588;28;20389;-79
2022/05/12 12:41:41;;;;;;;6.50;3.58;;;24.90;72.70;;;;;;4953388;29;20162;-80
2022/05/12 12:44:22;;;;;;;6.28;3.50;;;25.00;72.10;;;;;;4936367;29;20052;-80
2022/05/12 12:47:13;;;;;;;4.78;3.28;;;25.30;71.80;;;;;;4937154;29;20695;-77
2022/05/12 12:50:10;;;;;;;5.45;3.20;;;25.10;70.00;;;;;;4934870;29;20067;-80
2022/05/12 12:52:43;;;;;;;6.35;3.22;;;25.20;68.70;;;;;;4926490;29;20170;-80
2022/05/12 12:58:07;;;;;;;4.85;3.00;;;26.00;68.90;;;;;;4930253;29;20102;-80
2022/05/12 13:00:37;;;;;;;5.47;3.65;;;25.30;66.90;;;;;;4935834;29;20094;-78
2022/05/12 13:03:09;;;;;;;5.95;2.88;;;25.40;65.60;;;;;;4936217;29;20130;-80
2022/05/12 13:05:38;;;;;;;5.78;3.30;;;25.50;66.70;;;;;;4935529;29;20059;-81
2022/05/12 13:08:09;;;;;;;6.45;3.67;;;25.90;65.90;;;;;;4936171;29;20150;-78
2022/05/12 13:10:45;;;;;;;6.03;3.25;;;25.70;65.20;;;;;;4936408;29;20129;-80
2022/05/12 13:13:14;;;;;;;4.70;3.17;;;25.70;65.60;;;;;;4936249;29;20201;-80
2022/05/12 13:15:46;;;;;;;6.55;3.17;;;25.80;65.80;;;;;;4936042;29;20079;-77
2022/05/12 13:18:29;;;;;;;7.18;3.15;;;25.70;67.20;;;;;;4936272;29;20122;-81
2022/05/12 13:20:57;;;;;;;4.78;2.80;;;25.70;67.30;;;;;;4934971;29;20044;-79
2022/05/12 13:23:29;;;;;;;5.18;3.60;;;25.50;68.60;;;;;;4938020;29;20143;-86
2022/05/12 13:25:58;;;;;;;6.20;3.33;;;25.40;66.20;;;;;;4937385;29;20086;-86
2022/05/12 13:28:28;;;;;;;6.05;3.20;;;25.30;66.80;;;;;;4937631;29;20055;-84
2022/05/12 13:31:14;;;;;;;6.50;3.30;;;25.40;65.20;;;;;;4934996;29;20116;-84
2022/05/12 13:34:00;;;;;;;6.47;2.90;;;25.50;67.90;;;;;;4934805;29;20074;-85
2022/05/12 13:36:33;;;;;;;6.63;2.95;;;25.60;67.40;;;;;;4936365;29;20138;-86
2022/05/12 13:39:01;;;;;;;5.55;3.10;;;25.30;67.30;;;;;;4937081;29;20047;-84
2022/05/12 13:41:32;;;;;;;6.45;3.22;;;25.50;68.60;;;;;;4943332;29;20102;-85
2022/05/12 13:44:09;;;;;;;6.22;3.25;;;25.60;66.30;;;;;;4944900;29;20141;-86
2022/05/12 13:46:39;;;;;;;4.78;2.92;;;25.50;65.80;;;;;;4938961;29;20570;-84